createdAt,value
2017-04-05T00:00:17.770Z,0
2017-04-05T00:01:27.676Z,0
2017-04-05T00:02:37.736Z,0
2017-04-05T00:03:47.646Z,0
2017-04-05T00:04:57.242Z,0
2017-04-05T00:06:07.245Z,0
2017-04-05T00:07:16.527Z,0
2017-04-05T00:08:26.533Z,0
2017-04-05T00:09:36.184Z,0
2017-04-05T00:10:46.087Z,0
2017-04-05T00:11:56.323Z,0
2017-04-05T00:13:06.235Z,0
2017-04-05T00:14:16.172Z,0
2017-04-05T00:15:26.370Z,0
2017-04-05T00:16:35.999Z,0
2017-04-05T00:17:45.846Z,0
2017-04-05T00:18:55.778Z,0
2017-04-05T00:20:05.412Z,0
2017-04-05T00:21:15.392Z,0
2017-04-05T00:22:25.399Z,0
2017-04-05T00:23:35.767Z,0
2017-04-05T00:24:45.385Z,0
2017-04-05T00:25:55.066Z,0
2017-04-05T00:27:05.000Z,0
2017-04-05T00:28:14.953Z,0
2017-04-05T00:29:25.189Z,0
2017-04-05T00:30:35.094Z,0
2017-04-05T00:31:45.031Z,0
2017-04-05T00:32:54.705Z,0
2017-04-05T00:34:04.289Z,0
2017-04-05T00:35:13.836Z,0
2017-04-05T00:36:23.468Z,0
2017-04-05T00:37:33.064Z,0
2017-04-05T00:38:42.747Z,0
2017-04-05T00:39:52.655Z,0
2017-04-05T00:41:02.161Z,0
2017-04-05T00:42:11.140Z,0
2017-04-05T00:43:21.104Z,0
2017-04-05T00:44:31.010Z,0
2017-04-05T00:45:40.384Z,0
2017-04-05T00:46:50.550Z,0
2017-04-05T00:48:00.140Z,0
2017-04-05T00:49:09.445Z,0
2017-04-05T00:50:19.368Z,0
2017-04-05T00:51:29.407Z,0
2017-04-05T00:52:39.308Z,0
2017-04-05T00:53:48.563Z,0
2017-04-05T00:54:58.466Z,0
2017-04-05T00:56:08.386Z,0
2017-04-05T00:57:18.641Z,0
2017-04-05T00:58:28.857Z,0
2017-04-05T00:59:38.494Z,0
2017-04-05T01:00:48.422Z,0
2017-04-05T01:01:58.501Z,0
2017-04-05T01:03:08.404Z,0
2017-04-05T01:04:18.569Z,0
2017-04-05T01:05:27.849Z,0
2017-04-05T01:06:37.425Z,0
2017-04-05T01:07:47.385Z,0
2017-04-05T01:08:57.291Z,0
2017-04-05T01:10:07.231Z,0
2017-04-05T01:11:17.185Z,0
2017-04-05T01:12:26.442Z,0
2017-04-05T01:13:36.025Z,0
2017-04-05T01:14:46.105Z,0
2017-04-05T01:15:56.346Z,0
2017-04-05T01:17:06.317Z,0
2017-04-05T01:18:16.215Z,0
2017-04-05T01:19:26.145Z,0
2017-04-05T01:20:36.074Z,0
2017-04-05T01:21:46.321Z,0
2017-04-05T01:22:56.236Z,0
2017-04-05T01:24:06.194Z,0
2017-04-05T01:25:16.128Z,0
2017-04-05T01:26:26.110Z,0
2017-04-05T01:27:36.323Z,0
2017-04-05T01:28:46.378Z,0
2017-04-05T01:29:55.967Z,0
2017-04-05T01:31:05.595Z,0
2017-04-05T01:32:15.611Z,0
2017-04-05T01:33:25.549Z,0
2017-04-05T01:34:35.482Z,0
2017-04-05T01:35:45.128Z,0
2017-04-05T01:36:55.122Z,0
2017-04-05T01:38:05.030Z,0
2017-04-05T01:39:14.619Z,0
2017-04-05T01:40:24.233Z,0
2017-04-05T01:41:34.157Z,0
2017-04-05T01:42:44.138Z,0
2017-04-05T01:43:54.043Z,0
2017-04-05T01:45:04.327Z,0
2017-04-05T01:46:13.912Z,0
2017-04-05T01:47:23.827Z,0
2017-04-05T01:48:33.773Z,0
2017-04-05T01:49:43.712Z,0
2017-04-05T01:50:53.905Z,0
2017-04-05T01:52:03.921Z,0
2017-04-05T01:53:13.506Z,0
2017-04-05T01:54:23.463Z,0
2017-04-05T01:55:33.396Z,0
2017-04-05T01:56:43.273Z,0
2017-04-05T01:57:52.853Z,0
2017-04-05T01:59:01.807Z,0
2017-04-05T02:00:11.730Z,0
2017-04-05T02:01:20.704Z,0
2017-04-05T02:02:30.871Z,0
2017-04-05T02:03:40.794Z,0
2017-04-05T02:04:50.386Z,0
2017-04-05T02:06:00.037Z,0
2017-04-05T02:07:09.643Z,0
2017-04-05T02:08:19.898Z,0
2017-04-05T02:09:29.802Z,0
2017-04-05T02:10:39.410Z,0
2017-04-05T02:11:48.671Z,0
2017-04-05T02:12:58.039Z,0
2017-04-05T02:14:07.918Z,0
2017-04-05T02:15:17.845Z,0
2017-04-05T02:16:27.462Z,0
2017-04-05T02:17:37.384Z,0
2017-04-05T02:18:47.001Z,0
2017-04-05T02:19:56.845Z,0
2017-04-05T02:21:06.890Z,0
2017-04-05T02:22:16.479Z,0
2017-04-05T02:23:26.161Z,0
2017-04-05T02:24:35.753Z,0
2017-04-05T02:25:46.181Z,0
2017-04-05T02:26:56.158Z,0
2017-04-05T02:28:05.792Z,0
2017-04-05T02:29:15.391Z,0
2017-04-05T02:30:25.006Z,0
2017-04-05T02:31:35.235Z,0
2017-04-05T02:32:44.841Z,0
2017-04-05T02:33:54.538Z,0
2017-04-05T02:35:04.139Z,0
2017-04-05T02:36:14.058Z,0
2017-04-05T02:37:24.323Z,0
2017-04-05T02:38:34.266Z,0
2017-04-05T02:39:44.253Z,0
2017-04-05T02:40:53.841Z,0
2017-04-05T02:42:03.785Z,0
2017-04-05T02:43:13.925Z,0
2017-04-05T02:44:23.830Z,0
2017-04-05T02:45:33.791Z,0
2017-04-05T02:46:43.741Z,0
2017-04-05T02:47:53.641Z,0
2017-04-05T02:49:03.957Z,0
2017-04-05T02:50:13.869Z,0
2017-04-05T02:51:23.773Z,0
2017-04-05T02:52:33.681Z,0
2017-04-05T02:53:43.648Z,0
2017-04-05T02:54:53.572Z,0
2017-04-05T02:56:03.511Z,0
2017-04-05T02:57:13.095Z,0
2017-04-05T02:58:23.001Z,0
2017-04-05T02:59:32.958Z,0
2017-04-05T03:00:42.833Z,0
2017-04-05T03:01:52.728Z,0
2017-04-05T03:03:02.686Z,0
2017-04-05T03:04:12.648Z,0
2017-04-05T03:05:21.903Z,0
2017-04-05T03:06:32.089Z,0
2017-04-05T03:07:42.076Z,0
2017-04-05T03:08:51.650Z,0
2017-04-05T03:10:01.590Z,0
2017-04-05T03:11:11.569Z,0
2017-04-05T03:12:21.823Z,0
2017-04-05T03:13:31.890Z,0
2017-04-05T03:14:41.851Z,0
2017-04-05T03:15:51.561Z,0
2017-04-05T03:17:01.470Z,0
2017-04-05T03:18:11.315Z,0
2017-04-05T03:19:21.225Z,0
2017-04-05T03:20:31.212Z,0
2017-04-05T03:21:41.141Z,0
2017-04-05T03:22:51.138Z,0
2017-04-05T03:24:01.359Z,0
2017-04-05T03:25:10.641Z,0
2017-04-05T03:26:20.233Z,0
2017-04-05T03:27:30.147Z,0
2017-04-05T03:28:39.414Z,0
2017-04-05T03:29:49.625Z,0
2017-04-05T03:30:59.229Z,0
2017-04-05T03:32:09.160Z,0
2017-04-05T03:33:19.066Z,0
2017-04-05T03:34:28.646Z,0
2017-04-05T03:35:38.491Z,0
2017-04-05T03:36:48.409Z,0
2017-04-05T03:37:58.031Z,0
2017-04-05T03:39:07.960Z,0
2017-04-05T03:40:17.861Z,0
2017-04-05T03:41:27.720Z,0
2017-04-05T03:42:37.353Z,0
2017-04-05T03:43:46.932Z,0
2017-04-05T03:44:56.229Z,0
2017-04-05T03:46:06.241Z,0
2017-04-05T03:47:16.141Z,0
2017-04-05T03:48:26.078Z,0
2017-04-05T03:49:35.997Z,0
2017-04-05T03:50:45.901Z,0
2017-04-05T03:51:55.808Z,0
2017-04-05T03:53:05.686Z,0
2017-04-05T03:54:15.622Z,0
2017-04-05T03:55:25.610Z,0
2017-04-05T03:56:35.263Z,0
2017-04-05T03:57:44.846Z,0
2017-04-05T03:58:54.995Z,0
2017-04-05T04:00:04.255Z,0
2017-04-05T04:01:13.839Z,0
2017-04-05T04:02:23.547Z,0
2017-04-05T04:03:33.458Z,0
2017-04-05T04:04:43.601Z,0
2017-04-05T04:05:53.574Z,0
2017-04-05T04:07:03.500Z,4
2017-04-05T04:08:12.857Z,0
2017-04-05T04:09:22.900Z,4
2017-04-05T04:10:33.060Z,4
2017-04-05T04:11:42.869Z,4
2017-04-05T04:12:52.166Z,8
2017-04-05T04:14:02.116Z,8
2017-04-05T04:15:12.123Z,8
2017-04-05T04:16:22.318Z,8
2017-04-05T04:17:31.901Z,8
2017-04-05T04:18:41.813Z,16
2017-04-05T04:19:51.097Z,16
2017-04-05T04:21:00.707Z,16
2017-04-05T04:22:10.931Z,24
2017-04-05T04:23:20.882Z,28
2017-04-05T04:24:30.871Z,36
2017-04-05T04:25:40.786Z,44
2017-04-05T04:26:50.406Z,52
2017-04-05T04:28:00.278Z,60
2017-04-05T04:29:10.176Z,72
2017-04-05T04:30:19.829Z,80
2017-04-05T04:31:29.726Z,92
2017-04-05T04:32:39.665Z,112
2017-04-05T04:33:49.199Z,128
2017-04-05T04:34:58.801Z,144
2017-04-05T04:36:08.702Z,164
2017-04-05T04:37:18.677Z,180
2017-04-05T04:38:28.256Z,204
2017-04-05T04:39:38.106Z,228
2017-04-05T04:40:47.697Z,256
2017-04-05T04:41:57.693Z,280
2017-04-05T04:43:07.376Z,304
2017-04-05T04:44:17.279Z,336
2017-04-05T04:45:27.124Z,372
2017-04-05T04:46:37.081Z,404
2017-04-05T04:47:47.064Z,444
2017-04-05T04:48:56.328Z,480
2017-04-05T04:50:06.232Z,516
2017-04-05T04:51:16.424Z,556
2017-04-05T04:52:26.405Z,596
2017-04-05T04:53:36.422Z,640
2017-04-05T04:54:46.332Z,684
2017-04-05T04:55:56.229Z,724
2017-04-05T04:57:06.202Z,772
2017-04-05T04:58:16.106Z,816
2017-04-05T04:59:25.912Z,864
2017-04-05T05:00:35.535Z,916
2017-04-05T05:01:44.871Z,968
2017-04-05T05:02:54.746Z,1024
2017-04-05T05:04:04.759Z,1080
2017-04-05T05:05:14.370Z,1140
2017-04-05T05:06:23.971Z,1200
2017-04-05T05:07:33.879Z,1268
2017-04-05T05:08:44.064Z,1328
2017-04-05T05:09:53.680Z,1396
2017-04-05T05:11:03.597Z,1464
2017-04-05T05:12:13.486Z,1528
2017-04-05T05:13:23.132Z,1592
2017-04-05T05:14:32.957Z,1664
2017-04-05T05:15:42.891Z,1748
2017-04-05T05:16:52.526Z,1836
2017-04-05T05:18:02.545Z,1920
2017-04-05T05:19:12.505Z,2000
2017-04-05T05:20:22.731Z,2088
2017-04-05T05:21:32.683Z,2192
2017-04-05T05:22:41.953Z,2264
2017-04-05T05:23:51.861Z,2332
2017-04-05T05:25:01.444Z,2436
2017-04-05T05:26:11.664Z,2532
2017-04-05T05:27:21.239Z,2628
2017-04-05T05:28:31.359Z,2724
2017-04-05T05:29:41.047Z,2828
2017-04-05T05:30:50.666Z,2936
2017-04-05T05:32:00.576Z,3048
2017-04-05T05:33:10.228Z,3188
2017-04-05T05:34:20.189Z,3320
2017-04-05T05:35:30.105Z,3444
2017-04-05T05:36:39.920Z,3568
2017-04-05T05:37:50.135Z,3692
2017-04-05T05:39:00.049Z,3804
2017-04-05T05:40:09.682Z,3936
2017-04-05T05:41:19.647Z,4060
2017-04-05T05:42:29.611Z,4164
2017-04-05T05:43:39.950Z,4212
2017-04-05T05:44:49.877Z,4244
2017-04-05T05:45:59.498Z,4260
2017-04-05T05:47:09.416Z,4280
2017-04-05T05:48:19.332Z,4296
2017-04-05T05:49:29.199Z,4312
2017-04-05T05:50:38.776Z,4328
2017-04-05T05:51:48.684Z,4356
2017-04-05T05:52:57.662Z,4376
2017-04-05T05:54:06.928Z,4404
2017-04-05T05:55:17.169Z,4440
2017-04-05T05:56:27.074Z,4476
2017-04-05T05:57:36.669Z,4516
2017-04-05T05:58:46.579Z,4560
2017-04-05T05:59:56.549Z,4584
2017-04-05T06:01:06.744Z,4596
2017-04-05T06:02:16.749Z,4588
2017-04-05T06:03:26.387Z,4560
2017-04-05T06:04:36.104Z,4468
2017-04-05T06:05:45.749Z,4332
2017-04-05T06:06:55.954Z,4172
2017-04-05T06:08:05.568Z,4212
2017-04-05T06:09:15.175Z,4292
2017-04-05T06:10:25.156Z,4452
2017-04-05T06:11:35.068Z,4832
2017-04-05T06:12:44.955Z,5368
2017-04-05T06:13:54.916Z,5712
2017-04-05T06:15:04.959Z,5896
2017-04-05T06:16:14.884Z,6036
2017-04-05T06:17:24.511Z,6296
2017-04-05T06:18:34.407Z,6584
2017-04-05T06:19:44.370Z,6328
2017-04-05T06:20:53.987Z,6128
2017-04-05T06:22:03.935Z,5472
2017-04-05T06:23:13.518Z,5168
2017-04-05T06:24:23.093Z,5300
2017-04-05T06:25:32.676Z,5404
2017-04-05T06:26:41.953Z,5364
2017-04-05T06:27:51.243Z,5420
2017-04-05T06:29:00.554Z,5424
2017-04-05T06:30:10.425Z,5400
2017-04-05T06:31:20.026Z,5400
2017-04-05T06:32:30.225Z,5292
2017-04-05T06:33:40.183Z,5392
2017-04-05T06:34:50.189Z,5400
2017-04-05T06:36:00.391Z,5436
2017-04-05T06:37:10.391Z,5444
2017-04-05T06:38:20.161Z,5524
2017-04-05T06:39:30.263Z,5692
2017-04-05T06:40:40.190Z,5756
2017-04-05T06:41:50.397Z,5864
2017-04-05T06:43:00.338Z,5916
2017-04-05T06:44:10.266Z,6004
2017-04-05T06:45:20.206Z,6164
2017-04-05T06:46:29.823Z,6320
2017-04-05T06:47:39.690Z,6428
2017-04-05T06:48:49.631Z,6536
2017-04-05T06:49:59.570Z,6672
2017-04-05T06:51:09.631Z,6796
2017-04-05T06:52:18.904Z,6764
2017-04-05T06:53:29.170Z,6752
2017-04-05T06:54:39.112Z,6896
2017-04-05T06:55:49.039Z,7148
2017-04-05T06:56:58.965Z,7308
2017-04-05T06:58:08.901Z,7464
2017-04-05T06:59:18.741Z,7644
2017-04-05T07:00:28.006Z,7872
2017-04-05T07:01:37.958Z,8116
2017-04-05T07:02:47.898Z,8252
2017-04-05T07:03:57.807Z,8260
2017-04-05T07:05:07.983Z,8276
2017-04-05T07:06:17.897Z,8352
2017-04-05T07:07:27.179Z,8472
2017-04-05T07:08:37.122Z,8580
2017-04-05T07:09:46.849Z,8644
2017-04-05T07:10:56.731Z,8532
2017-04-05T07:12:06.669Z,8388
2017-04-05T07:13:16.752Z,8328
2017-04-05T07:14:26.693Z,8332
2017-04-05T07:15:36.612Z,8444
2017-04-05T07:16:46.790Z,8900
2017-04-05T07:17:56.718Z,9356
2017-04-05T07:19:06.307Z,9492
2017-04-05T07:20:15.892Z,9668
2017-04-05T07:21:25.522Z,9960
2017-04-05T07:22:35.804Z,10284
2017-04-05T07:23:45.710Z,10360
2017-04-05T07:24:55.410Z,10144
2017-04-05T07:26:04.680Z,10124
2017-04-05T07:27:14.269Z,10168
2017-04-05T07:28:24.145Z,10636
2017-04-05T07:29:33.473Z,11272
2017-04-05T07:30:43.138Z,11664
2017-04-05T07:31:52.721Z,11844
2017-04-05T07:33:02.641Z,11952
2017-04-05T07:34:12.823Z,12176
2017-04-05T07:35:22.411Z,12520
2017-04-05T07:36:32.036Z,12852
2017-04-05T07:37:41.962Z,13300
2017-04-05T07:38:51.961Z,14092
2017-04-05T07:40:02.110Z,15856
2017-04-05T07:41:11.382Z,17600
2017-04-05T07:42:21.294Z,17664
2017-04-05T07:43:31.258Z,18240
2017-04-05T07:44:41.816Z,19360
2017-04-05T07:45:52.625Z,20096
2017-04-05T07:47:02.481Z,20448
2017-04-05T07:48:12.766Z,21152
2017-04-05T07:49:24.257Z,21344
2017-04-05T07:50:34.789Z,20160
2017-04-05T07:51:45.249Z,19264
2017-04-05T07:52:55.172Z,19488
2017-04-05T07:54:06.708Z,19200
2017-04-05T07:55:17.290Z,17792
2017-04-05T07:56:27.862Z,16576
2017-04-05T07:57:38.222Z,16832
2017-04-05T07:58:48.743Z,17696
2017-04-05T07:59:59.265Z,18368
2017-04-05T08:01:10.038Z,17472
2017-04-05T08:02:21.253Z,16064
2017-04-05T08:03:32.007Z,15156
2017-04-05T08:04:42.576Z,15376
2017-04-05T08:05:53.082Z,15244
2017-04-05T08:07:03.753Z,15344
2017-04-05T08:08:13.946Z,16352
2017-04-05T08:09:24.402Z,18464
2017-04-05T08:10:34.594Z,20672
2017-04-05T08:11:44.458Z,22496
2017-04-05T08:12:54.718Z,23008
2017-04-05T08:14:05.991Z,23200
2017-04-05T08:15:16.933Z,22752
2017-04-05T08:16:27.452Z,22368
2017-04-05T08:17:38.110Z,20576
2017-04-05T08:18:49.371Z,18560
2017-04-05T08:19:59.962Z,18048
2017-04-05T08:21:10.490Z,18304
2017-04-05T08:22:20.829Z,18272
2017-04-05T08:23:30.724Z,16896
2017-04-05T08:24:41.005Z,16992
2017-04-05T08:25:51.681Z,17312
2017-04-05T08:27:02.558Z,19584
2017-04-05T08:28:13.063Z,21792
2017-04-05T08:29:23.109Z,21888
2017-04-05T08:30:33.695Z,23232
2017-04-05T08:31:44.324Z,25984
2017-04-05T08:32:54.919Z,31712
2017-04-05T08:34:05.138Z,40928
2017-04-05T08:35:15.362Z,38720
2017-04-05T08:36:25.867Z,29664
2017-04-05T08:37:36.002Z,29024
2017-04-05T08:38:46.435Z,35360
2017-04-05T08:39:56.671Z,30016
2017-04-05T08:41:07.208Z,25472
2017-04-05T08:42:18.352Z,21856
2017-04-05T08:43:28.588Z,20992
2017-04-05T08:44:39.037Z,21472
2017-04-05T08:45:49.181Z,23648
2017-04-05T08:46:59.746Z,28192
2017-04-05T08:48:09.913Z,26528
2017-04-05T08:49:20.747Z,29088
2017-04-05T08:50:32.232Z,27808
2017-04-05T08:51:42.127Z,25056
2017-04-05T08:52:52.646Z,23776
2017-04-05T08:54:02.874Z,24960
2017-04-05T08:55:13.396Z,39744
2017-04-05T08:56:23.752Z,54656
2017-04-05T08:57:34.289Z,39168
2017-04-05T08:58:44.817Z,32928
2017-04-05T08:59:54.999Z,29568
2017-04-05T09:01:04.823Z,48672
2017-04-05T09:02:15.578Z,68800
2017-04-05T09:03:25.764Z,70464
2017-04-05T09:04:36.333Z,60288
2017-04-05T09:05:47.841Z,68672
2017-04-05T09:06:58.104Z,71392
2017-04-05T09:08:08.856Z,69056
2017-04-05T09:09:19.211Z,86528
2017-04-05T09:10:29.734Z,73248
2017-04-05T09:11:40.274Z,41088
2017-04-05T09:12:50.795Z,45632
2017-04-05T09:14:01.677Z,51488
2017-04-05T09:15:12.208Z,55744
2017-04-05T09:16:22.726Z,65792
2017-04-05T09:17:32.605Z,69824
2017-04-05T09:18:43.199Z,45184
2017-04-05T09:19:53.967Z,42528
2017-04-05T09:21:04.616Z,55968
2017-04-05T09:22:15.171Z,48224
2017-04-05T09:23:25.406Z,56960
2017-04-05T09:24:35.697Z,61152
2017-04-05T09:25:46.533Z,48736
2017-04-05T09:26:57.111Z,55200
2017-04-05T09:28:07.333Z,59424
2017-04-05T09:29:17.573Z,33248
2017-04-05T09:30:27.791Z,68256
2017-04-05T09:31:37.939Z,44672
2017-04-05T09:32:48.489Z,40192
2017-04-05T09:33:59.220Z,57696
2017-04-05T09:35:09.765Z,40576
2017-04-05T09:36:20.303Z,55328
2017-04-05T09:37:31.124Z,40640
2017-04-05T09:38:41.668Z,41952
2017-04-05T09:39:51.467Z,57664
2017-04-05T09:41:01.971Z,65088
2017-04-05T09:42:12.551Z,41312
2017-04-05T09:43:23.329Z,37088
2017-04-05T09:44:33.862Z,26560
2017-04-05T09:45:44.429Z,28960
2017-04-05T09:46:55.026Z,55328
2017-04-05T09:48:05.010Z,52320
2017-04-05T09:49:15.526Z,52576
2017-04-05T09:50:26.995Z,45856
2017-04-05T09:51:37.262Z,58112
2017-04-05T09:52:47.818Z,51808
2017-04-05T09:53:58.339Z,46272
2017-04-05T09:55:08.878Z,42304
2017-04-05T09:56:19.089Z,48448
2017-04-05T09:57:29.619Z,38432
2017-04-05T09:58:40.138Z,49280
2017-04-05T09:59:51.624Z,57088
2017-04-05T10:01:02.382Z,49472
2017-04-05T10:02:12.930Z,51808
2017-04-05T10:03:23.482Z,59712
2017-04-05T10:04:33.308Z,63904
2017-04-05T10:05:43.832Z,77920
2017-04-05T10:06:53.995Z,81280
2017-04-05T10:08:04.573Z,101856
2017-04-05T10:09:15.078Z,110304
2017-04-05T10:10:25.694Z,70464
2017-04-05T10:11:36.214Z,68480
2017-04-05T10:12:46.715Z,45408
2017-04-05T10:13:57.285Z,91392
2017-04-05T10:15:07.487Z,70240
2017-04-05T10:16:17.710Z,68416
2017-04-05T10:17:27.930Z,49920
2017-04-05T10:18:38.374Z,48096
2017-04-05T10:19:48.609Z,45760
2017-04-05T10:20:59.185Z,33344
2017-04-05T10:22:09.697Z,27008
2017-04-05T10:23:20.355Z,27264
2017-04-05T10:24:32.192Z,32736
2017-04-05T10:25:42.420Z,32608
2017-04-05T10:26:53.140Z,40736
2017-04-05T10:28:03.356Z,49536
2017-04-05T10:29:13.581Z,35968
2017-04-05T10:30:25.335Z,31328
2017-04-05T10:31:35.534Z,20928
2017-04-05T10:32:46.089Z,22496
2017-04-05T10:33:56.653Z,31744
2017-04-05T10:35:07.223Z,31808
2017-04-05T10:36:18.031Z,38176
2017-04-05T10:37:28.622Z,38368
2017-04-05T10:38:39.176Z,41408
2017-04-05T10:39:49.702Z,37792
2017-04-05T10:41:00.247Z,34976
2017-04-05T10:42:11.010Z,34336
2017-04-05T10:43:21.199Z,39200
2017-04-05T10:44:31.764Z,56832
2017-04-05T10:45:42.347Z,63648
2017-04-05T10:46:52.589Z,61632
2017-04-05T10:48:03.389Z,55360
2017-04-05T10:49:13.765Z,36608
2017-04-05T10:50:24.301Z,44864
2017-04-05T10:51:34.619Z,45568
2017-04-05T10:52:44.551Z,40928
2017-04-05T10:53:55.068Z,32352
2017-04-05T10:55:05.685Z,24992
2017-04-05T10:56:15.890Z,23968
2017-04-05T10:57:25.716Z,24992
2017-04-05T10:58:35.949Z,25376
2017-04-05T10:59:46.500Z,28064
2017-04-05T11:00:57.079Z,33504
2017-04-05T11:02:07.626Z,29952
2017-04-05T11:03:18.294Z,30784
2017-04-05T11:04:28.930Z,21120
2017-04-05T11:05:39.797Z,26304
2017-04-05T11:06:50.326Z,41632
2017-04-05T11:08:00.931Z,48096
2017-04-05T11:09:11.194Z,54304
2017-04-05T11:10:21.383Z,57664
2017-04-05T11:11:32.167Z,61088
2017-04-05T11:12:42.710Z,50080
2017-04-05T11:13:53.455Z,32800
2017-04-05T11:15:03.963Z,37216
2017-04-05T11:16:14.168Z,54176
2017-04-05T11:17:24.939Z,45536
2017-04-05T11:18:35.269Z,42784
2017-04-05T11:19:46.541Z,38144
2017-04-05T11:20:57.060Z,35424
2017-04-05T11:22:06.887Z,26624
2017-04-05T11:23:17.207Z,33984
2017-04-05T11:24:27.476Z,24416
2017-04-05T11:25:37.994Z,17632
2017-04-05T11:26:49.609Z,13916
2017-04-05T11:27:59.559Z,11608
2017-04-05T11:29:10.362Z,11412
2017-04-05T11:30:21.108Z,14604
2017-04-05T11:31:31.609Z,25280
2017-04-05T11:32:42.200Z,35744
2017-04-05T11:33:52.382Z,29792
2017-04-05T11:35:02.922Z,26976
2017-04-05T11:36:13.474Z,25248
2017-04-05T11:37:23.980Z,21376
2017-04-05T11:38:34.548Z,20320
2017-04-05T11:39:45.098Z,20544
2017-04-05T11:40:56.665Z,17504
2017-04-05T11:42:07.199Z,15512
2017-04-05T11:43:17.162Z,13804
2017-04-05T11:44:27.686Z,11388
2017-04-05T11:45:38.198Z,9040
2017-04-05T11:46:48.355Z,7840
2017-04-05T11:47:58.542Z,7720
2017-04-05T11:49:09.071Z,9172
2017-04-05T11:50:19.602Z,11428
2017-04-05T11:51:29.476Z,13596
2017-04-05T11:52:41.275Z,16384
2017-04-05T11:53:51.475Z,20224
2017-04-05T11:55:02.013Z,21568
2017-04-05T11:56:12.066Z,19776
2017-04-05T11:57:23.600Z,17280
2017-04-05T11:58:34.471Z,15616
2017-04-05T11:59:45.007Z,15484
2017-04-05T12:00:55.534Z,17088
2017-04-05T12:02:06.249Z,18240
2017-04-05T12:03:16.748Z,18432
2017-04-05T12:04:27.588Z,18688
2017-04-05T12:05:38.103Z,20352
2017-04-05T12:06:48.669Z,21984
2017-04-05T12:08:00.212Z,23936
2017-04-05T12:09:10.860Z,21792
2017-04-05T12:10:21.266Z,20416
2017-04-05T12:11:31.131Z,19744
2017-04-05T12:12:41.761Z,18432
2017-04-05T12:13:51.990Z,17408
2017-04-05T12:15:03.487Z,17344
2017-04-05T12:16:14.304Z,17664
2017-04-05T12:17:24.881Z,18176
2017-04-05T12:18:34.801Z,19648
2017-04-05T12:19:45.348Z,20544
2017-04-05T12:20:55.236Z,18560
2017-04-05T12:22:05.754Z,14932
2017-04-05T12:23:16.309Z,12664
2017-04-05T12:24:26.522Z,11204
2017-04-05T12:25:37.137Z,10008
2017-04-05T12:26:47.637Z,9476
2017-04-05T12:27:57.817Z,9832
2017-04-05T12:29:08.049Z,10000
2017-04-05T12:30:18.553Z,10812
2017-04-05T12:31:29.325Z,12596
2017-04-05T12:32:39.879Z,13372
2017-04-05T12:33:50.761Z,13092
2017-04-05T12:35:00.959Z,12588
2017-04-05T12:36:11.480Z,12104
2017-04-05T12:37:22.639Z,11744
2017-04-05T12:38:32.842Z,11160
2017-04-05T12:39:43.639Z,9880
2017-04-05T12:40:54.182Z,9060
2017-04-05T12:42:04.753Z,9000
2017-04-05T12:45:32.701Z,10876
2017-04-05T12:46:43.291Z,12192
2017-04-05T12:47:53.752Z,12984
2017-04-05T12:49:04.260Z,14096
2017-04-05T12:50:14.224Z,13880
2017-04-05T12:51:24.989Z,12108
2017-04-05T12:52:35.514Z,10800
2017-04-05T12:53:46.054Z,9992
2017-04-05T12:54:56.347Z,9572
2017-04-05T12:56:06.463Z,8720
2017-04-05T12:57:16.763Z,6968
2017-04-05T12:58:26.364Z,6552
2017-04-05T12:59:35.671Z,7156
2017-04-05T13:00:45.589Z,6964
2017-04-05T13:01:54.888Z,6004
2017-04-05T13:03:05.084Z,6340
2017-04-05T13:04:14.684Z,7704
2017-04-05T13:05:23.948Z,8344
2017-04-05T13:06:33.887Z,8384
2017-04-05T13:07:43.835Z,8528
2017-04-05T13:08:53.801Z,8760
2017-04-05T13:10:03.743Z,8636
2017-04-05T13:11:13.389Z,8992
2017-04-05T13:12:22.991Z,9944
2017-04-05T13:13:32.915Z,10804
2017-04-05T13:14:42.769Z,11672
2017-04-05T13:15:52.788Z,12624
2017-04-05T13:17:02.432Z,12084
2017-04-05T13:18:12.072Z,10640
2017-04-05T13:19:22.050Z,9920
2017-04-05T13:20:31.590Z,9800
2017-04-05T13:21:40.888Z,10036
2017-04-05T13:22:49.876Z,10068
2017-04-05T13:23:59.810Z,8736
2017-04-05T13:25:09.745Z,6584
2017-04-05T13:26:18.997Z,6756
2017-04-05T13:27:28.996Z,7616
2017-04-05T13:28:38.927Z,7072
2017-04-05T13:29:48.859Z,6868
2017-04-05T13:30:58.816Z,7240
2017-04-05T13:32:09.020Z,7828
2017-04-05T13:33:18.624Z,7208
2017-04-05T13:34:28.258Z,5144
2017-04-05T13:35:37.875Z,4360
2017-04-05T13:36:47.173Z,3600
2017-04-05T13:37:56.738Z,3364
2017-04-05T13:39:06.335Z,3896
2017-04-05T13:40:16.281Z,3436
2017-04-05T13:41:26.192Z,2908
2017-04-05T13:42:36.144Z,2540
2017-04-05T13:43:46.380Z,2276
2017-04-05T13:44:56.321Z,3188
2017-04-05T13:46:06.302Z,4468
2017-04-05T13:47:15.261Z,5132
2017-04-05T13:48:25.201Z,6072
2017-04-05T13:49:35.369Z,7364
2017-04-05T13:50:45.035Z,7612
2017-04-05T13:51:54.309Z,7748
2017-04-05T13:53:03.944Z,8540
2017-04-05T13:54:13.899Z,9700
2017-04-05T13:55:23.748Z,10776
2017-04-05T13:56:33.668Z,11236
2017-04-05T13:57:43.587Z,10640
2017-04-05T13:58:53.561Z,9756
2017-04-05T14:00:03.526Z,9384
2017-04-05T14:01:13.417Z,9544
2017-04-05T14:02:23.396Z,10020
2017-04-05T14:03:33.336Z,10084
2017-04-05T14:04:42.955Z,9832
2017-04-05T14:05:52.589Z,8912
2017-04-05T14:07:02.815Z,7548
2017-04-05T14:08:12.806Z,6456
2017-04-05T14:09:22.729Z,7164
2017-04-05T14:10:32.728Z,8236
2017-04-05T14:11:42.683Z,8596
2017-04-05T14:12:52.557Z,8996
2017-04-05T14:14:02.553Z,8428
2017-04-05T14:15:12.484Z,7520
2017-04-05T14:16:22.254Z,6848
2017-04-05T14:17:32.182Z,6700
2017-04-05T14:18:42.032Z,6504
2017-04-05T14:19:52.105Z,5940
2017-04-05T14:21:01.712Z,5672
2017-04-05T14:22:11.325Z,5196
2017-04-05T14:23:21.252Z,5104
2017-04-05T14:24:31.605Z,5608
2017-04-05T14:25:41.607Z,6820
2017-04-05T14:26:51.644Z,7356
2017-04-05T14:28:01.574Z,7712
2017-04-05T14:29:11.189Z,8792
2017-04-05T14:30:21.091Z,10056
2017-04-05T14:31:31.024Z,10336
2017-04-05T14:32:40.633Z,10336
2017-04-05T14:33:50.558Z,9652
2017-04-05T14:35:00.167Z,8492
2017-04-05T14:36:10.080Z,7496
2017-04-05T14:37:20.020Z,5584
2017-04-05T14:38:29.311Z,4084
2017-04-05T14:39:39.332Z,4012
2017-04-05T14:40:49.319Z,3968
2017-04-05T14:41:58.896Z,4060
2017-04-05T14:43:08.905Z,4952
2017-04-05T14:44:18.984Z,5172
2017-04-05T14:45:28.953Z,4984
2017-04-05T14:46:38.909Z,5500
2017-04-05T14:47:49.227Z,6096
2017-04-05T14:48:59.180Z,5672
2017-04-05T14:50:08.820Z,5784
2017-04-05T14:51:18.818Z,5176
2017-04-05T14:52:28.865Z,5452
2017-04-05T14:53:39.044Z,5712
2017-04-05T14:54:49.054Z,4668
2017-04-05T14:55:58.985Z,3372
2017-04-05T14:57:09.045Z,2684
2017-04-05T14:58:18.760Z,2588
2017-04-05T14:59:28.931Z,2444
2017-04-05T15:00:38.957Z,2144
2017-04-05T15:01:48.882Z,2204
2017-04-05T15:02:58.523Z,2352
2017-04-05T15:04:08.486Z,2408
2017-04-05T15:05:18.332Z,2700
2017-04-05T15:06:27.972Z,3160
2017-04-05T15:07:38.010Z,3476
2017-04-05T15:08:47.603Z,3136
2017-04-05T15:09:57.559Z,2932
2017-04-05T15:11:07.772Z,2900
2017-04-05T15:12:17.745Z,3048
2017-04-05T15:13:27.384Z,3304
2017-04-05T15:14:37.335Z,3620
2017-04-05T15:15:46.685Z,4256
2017-04-05T15:16:56.899Z,5148
2017-04-05T15:18:06.736Z,5348
2017-04-05T15:19:16.696Z,5336
2017-04-05T15:20:26.315Z,6036
2017-04-05T15:21:36.376Z,6132
2017-04-05T15:22:46.552Z,6024
2017-04-05T15:23:56.536Z,5696
2017-04-05T15:25:06.467Z,5520
2017-04-05T15:26:16.104Z,5528
2017-04-05T15:27:26.036Z,5704
2017-04-05T15:28:36.268Z,5372
2017-04-05T15:29:45.948Z,5136
2017-04-05T15:30:55.865Z,5532
2017-04-05T15:32:05.466Z,5768
2017-04-05T15:33:15.394Z,5660
2017-04-05T15:34:25.394Z,5708
2017-04-05T15:35:35.003Z,5820
2017-04-05T15:36:44.924Z,5800
2017-04-05T15:37:54.547Z,5800
2017-04-05T15:39:04.476Z,5832
2017-04-05T15:40:14.485Z,5548
2017-04-05T15:41:24.404Z,5132
2017-04-05T15:42:33.989Z,4968
2017-04-05T15:43:43.282Z,5072
2017-04-05T15:44:52.899Z,5204
2017-04-05T15:46:02.819Z,5080
2017-04-05T15:47:12.750Z,5004
2017-04-05T15:48:22.681Z,4464
2017-04-05T15:49:32.283Z,4268
2017-04-05T15:50:42.399Z,3932